sensor_id;sensor_type;location;lat;lon;timestamp;P1;durP1;ratioP1;P2;durP2;ratioP2
16442;SDS011;8331;51.654;14.376;2022-09-09T00:04:34;5.60;;;2.43;;
16442;SDS011;8331;51.654;14.376;2022-09-09T00:07:10;2.53;;;2.20;;
16442;SDS011;8331;51.654;14.376;2022-09-09T00:10:00;2.53;;;2.33;;
16442;SDS011;8331;51.654;14.376;2022-09-09T00:12:57;2.17;;;2.07;;
16442;SDS011;8331;51.654;14.376;2022-09-09T00:15:35;5.23;;;2.33;;
16442;SDS011;8331;51.654;14.376;2022-09-09T00:21:16;5.13;;;2.33;;
16442;SDS011;8331;51.654;14.376;2022-09-09T00:23:50;3.87;;;2.40;;
16442;SDS011;8331;51.654;14.376;2022-09-09T00:31:39;4.50;;;2.30;;
16442;SDS011;8331;51.654;14.376;2022-09-09T00:34:24;2.80;;;2.60;;
16442;SDS011;8331;51.654;14.376;2022-09-09T00:36:52;2.50;;;2.30;;
16442;SDS011;8331;51.654;14.376;2022-09-09T00:39:36;3.57;;;2.67;;
16442;SDS011;8331;51.654;14.376;2022-09-09T00:45:11;6.60;;;2.93;;
16442;SDS011;8331;51.654;14.376;2022-09-09T00:47:43;3.33;;;2.13;;
16442;SDS011;8331;51.654;14.376;2022-09-09T00:50:25;2.37;;;2.27;;
16442;SDS011;8331;51.654;14.376;2022-09-09T00:52:59;3.70;;;2.50;;
16442;SDS011;8331;51.654;14.376;2022-09-09T00:58:25;2.77;;;2.57;;
16442;SDS011;8331;51.654;14.376;2022-09-09T01:00:58;3.03;;;2.70;;
16442;SDS011;8331;51.654;14.376;2022-09-09T01:03:42;3.23;;;2.57;;
16442;SDS011;8331;51.654;14.376;2022-09-09T01:14:16;2.50;;;2.40;;
16442;SDS011;8331;51.654;14.376;2022-09-09T01:22:45;2.70;;;2.53;;
16442;SDS011;8331;51.654;14.376;2022-09-09T01:25:22;3.10;;;2.80;;
16442;SDS011;8331;51.654;14.376;2022-09-09T01:28:00;2.83;;;2.60;;
16442;SDS011;8331;51.654;14.376;2022-09-09T01:30:29;3.43;;;2.63;;
16442;SDS011;8331;51.654;14.376;2022-09-09T01:32:58;2.80;;;2.60;;
16442;SDS011;8331;51.654;14.376;2022-09-09T01:35:29;4.00;;;2.70;;
16442;SDS011;8331;51.654;14.376;2022-09-09T01:38:03;4.37;;;2.70;;
16442;SDS011;8331;51.654;14.376;2022-09-09T01:40:30;6.20;;;2.83;;
16442;SDS011;8331;51.654;14.376;2022-09-09T01:42:56;3.07;;;2.87;;
16442;SDS011;8331;51.654;14.376;2022-09-09T01:45:23;4.20;;;3.23;;
16442;SDS011;8331;51.654;14.376;2022-09-09T01:47:52;4.30;;;2.67;;
16442;SDS011;8331;51.654;14.376;2022-09-09T01:50:28;3.00;;;2.80;;
16442;SDS011;8331;51.654;14.376;2022-09-09T01:52:56;2.87;;;2.57;;
16442;SDS011;8331;51.654;14.376;2022-09-09T01:55:29;2.73;;;2.53;;
16442;SDS011;8331;51.654;14.376;2022-09-09T02:00:54;2.20;;;2.10;;
16442;SDS011;8331;51.654;14.376;2022-09-09T02:03:47;2.80;;;2.60;;
16442;SDS011;8331;51.654;14.376;2022-09-09T02:06:27;4.30;;;2.40;;
16442;SDS011;8331;51.654;14.376;2022-09-09T02:09:05;2.70;;;2.50;;
16442;SDS011;8331;51.654;14.376;2022-09-09T02:11:34;3.83;;;2.70;;
16442;SDS011;8331;51.654;14.376;2022-09-09T02:14:16;5.17;;;2.40;;
16442;SDS011;8331;51.654;14.376;2022-09-09T02:16:48;2.80;;;2.33;;
16442;SDS011;8331;51.654;14.376;2022-09-09T02:19:19;3.33;;;2.10;;
16442;SDS011;8331;51.654;14.376;2022-09-09T02:22:12;2.53;;;2.43;;
16442;SDS011;8331;51.654;14.376;2022-09-09T02:24:39;3.00;;;2.70;;
16442;SDS011;8331;51.654;14.376;2022-09-09T02:27:12;3.30;;;2.83;;
16442;SDS011;8331;51.654;14.376;2022-09-09T02:29:41;2.80;;;2.60;;
16442;SDS011;8331;51.654;14.376;2022-09-09T02:32:14;2.70;;;2.57;;
16442;SDS011;8331;51.654;14.376;2022-09-09T02:34:47;2.67;;;2.53;;
16442;SDS011;8331;51.654;14.376;2022-09-09T02:37:17;3.33;;;2.23;;
16442;SDS011;8331;51.654;14.376;2022-09-09T02:39:48;2.83;;;2.60;;
16442;SDS011;8331;51.654;14.376;2022-09-09T02:42:19;3.27;;;3.03;;
16442;SDS011;8331;51.654;14.376;2022-09-09T02:44:45;3.00;;;2.40;;
16442;SDS011;8331;51.654;14.376;2022-09-09T02:50:03;2.53;;;2.37;;
16442;SDS011;8331;51.654;14.376;2022-09-09T02:58:01;3.77;;;3.47;;
16442;SDS011;8331;51.654;14.376;2022-09-09T03:00:31;2.70;;;2.53;;
16442;SDS011;8331;51.654;14.376;2022-09-09T03:03:01;3.00;;;2.80;;
16442;SDS011;8331;51.654;14.376;2022-09-09T03:05:29;3.97;;;2.90;;
16442;SDS011;8331;51.654;14.376;2022-09-09T03:07:56;2.53;;;2.33;;
16442;SDS011;8331;51.654;14.376;2022-09-09T03:10:23;2.60;;;2.40;;
16442;SDS011;8331;51.654;14.376;2022-09-09T03:12:49;3.50;;;2.73;;
16442;SDS011;8331;51.654;14.376;2022-09-09T03:15:17;2.87;;;2.60;;
16442;SDS011;8331;51.654;14.376;2022-09-09T03:17:44;3.15;;;2.95;;
16442;SDS011;8331;51.654;14.376;2022-09-09T03:20:11;2.80;;;2.60;;
16442;SDS011;8331;51.654;14.376;2022-09-09T03:22:38;3.17;;;2.90;;
16442;SDS011;8331;51.654;14.376;2022-09-09T03:25:05;2.90;;;2.70;;
16442;SDS011;8331;51.654;14.376;2022-09-09T03:27:34;4.30;;;2.70;;
16442;SDS011;8331;51.654;14.376;2022-09-09T03:30:02;5.70;;;2.70;;
16442;SDS011;8331;51.654;14.376;2022-09-09T03:32:29;2.97;;;2.77;;
16442;SDS011;8331;51.654;14.376;2022-09-09T03:34:57;2.83;;;2.63;;
16442;SDS011;8331;51.654;14.376;2022-09-09T03:37:24;5.00;;;3.00;;
16442;SDS011;8331;51.654;14.376;2022-09-09T03:39:52;2.87;;;2.60;;
16442;SDS011;8331;51.654;14.376;2022-09-09T03:42:21;2.50;;;2.30;;
16442;SDS011;8331;51.654;14.376;2022-09-09T03:44:52;2.60;;;2.50;;
16442;SDS011;8331;51.654;14.376;2022-09-09T03:47:22;3.87;;;2.73;;
16442;SDS011;8331;51.654;14.376;2022-09-09T03:49:52;3.10;;;2.90;;
16442;SDS011;8331;51.654;14.376;2022-09-09T03:52:19;4.03;;;2.77;;
16442;SDS011;8331;51.654;14.376;2022-09-09T03:54:50;5.73;;;2.97;;
16442;SDS011;8331;51.654;14.376;2022-09-09T03:57:17;2.50;;;2.37;;
16442;SDS011;8331;51.654;14.376;2022-09-09T03:59:44;2.90;;;2.70;;
16442;SDS011;8331;51.654;14.376;2022-09-09T04:02:11;3.20;;;2.53;;
16442;SDS011;8331;51.654;14.376;2022-09-09T04:04:38;4.07;;;2.80;;
16442;SDS011;8331;51.654;14.376;2022-09-09T04:07:05;3.47;;;2.60;;
16442;SDS011;8331;51.654;14.376;2022-09-09T04:09:33;2.60;;;2.40;;
16442;SDS011;8331;51.654;14.376;2022-09-09T04:12:01;4.15;;;2.67;;
16442;SDS011;8331;51.654;14.376;2022-09-09T04:14:29;2.97;;;2.77;;
16442;SDS011;8331;51.654;14.376;2022-09-09T04:16:56;3.00;;;2.80;;
16442;SDS011;8331;51.654;14.376;2022-09-09T04:19:25;3.00;;;2.33;;
16442;SDS011;8331;51.654;14.376;2022-09-09T04:21:52;2.80;;;2.60;;
16442;SDS011;8331;51.654;14.376;2022-09-09T04:24:20;2.73;;;2.50;;
16442;SDS011;8331;51.654;14.376;2022-09-09T04:26:48;3.00;;;2.50;;
16442;SDS011;8331;51.654;14.376;2022-09-09T04:29:15;3.33;;;2.70;;
16442;SDS011;8331;51.654;14.376;2022-09-09T04:31:42;3.93;;;2.90;;
16442;SDS011;8331;51.654;14.376;2022-09-09T04:34:09;2.60;;;2.50;;
16442;SDS011;8331;51.654;14.376;2022-09-09T04:36:35;2.47;;;2.37;;
16442;SDS011;8331;51.654;14.376;2022-09-09T04:39:04;2.80;;;2.60;;
16442;SDS011;8331;51.654;14.376;2022-09-09T04:41:31;2.40;;;2.30;;
16442;SDS011;8331;51.654;14.376;2022-09-09T04:43:58;4.47;;;3.07;;
16442;SDS011;8331;51.654;14.376;2022-09-09T04:46:27;2.60;;;2.40;;
16442;SDS011;8331;51.654;14.376;2022-09-09T04:48:53;2.93;;;2.60;;
16442;SDS011;8331;51.654;14.376;2022-09-09T04:51:24;2.67;;;2.47;;
16442;SDS011;8331;51.654;14.376;2022-09-09T04:53:51;3.33;;;2.60;;
16442;SDS011;8331;51.654;14.376;2022-09-09T04:56:20;2.70;;;2.50;;
16442;SDS011;8331;51.654;14.376;2022-09-09T04:58:50;2.60;;;2.40;;
16442;SDS011;8331;51.654;14.376;2022-09-09T05:01:20;2.97;;;2.70;;
16442;SDS011;8331;51.654;14.376;2022-09-09T05:03:49;3.00;;;2.70;;
16442;SDS011;8331;51.654;14.376;2022-09-09T05:06:20;3.97;;;2.40;;
16442;SDS011;8331;51.654;14.376;2022-09-09T05:08:51;3.13;;;2.67;;
16442;SDS011;8331;51.654;14.376;2022-09-09T05:13:52;6.03;;;2.30;;
16442;SDS011;8331;51.654;14.376;2022-09-09T05:16:20;8.97;;;3.20;;
16442;SDS011;8331;51.654;14.376;2022-09-09T05:18:47;3.87;;;2.80;;
16442;SDS011;8331;51.654;14.376;2022-09-09T05:21:14;2.63;;;2.53;;
16442;SDS011;8331;51.654;14.376;2022-09-09T05:23:42;2.60;;;2.40;;
16442;SDS011;8331;51.654;14.376;2022-09-09T05:26:11;7.57;;;2.50;;
16442;SDS011;8331;51.654;14.376;2022-09-09T05:28:44;3.93;;;2.67;;
16442;SDS011;8331;51.654;14.376;2022-09-09T05:31:12;2.67;;;2.57;;
16442;SDS011;8331;51.654;14.376;2022-09-09T05:33:42;2.70;;;2.50;;
16442;SDS011;8331;51.654;14.376;2022-09-09T05:36:10;3.77;;;2.60;;
16442;SDS011;8331;51.654;14.376;2022-09-09T05:38:41;3.17;;;2.40;;
16442;SDS011;8331;51.654;14.376;2022-09-09T05:41:10;2.50;;;2.40;;
16442;SDS011;8331;51.654;14.376;2022-09-09T05:43:37;4.63;;;2.13;;
16442;SDS011;8331;51.654;14.376;2022-09-09T05:46:05;3.07;;;2.67;;
16442;SDS011;8331;51.654;14.376;2022-09-09T05:48:37;3.13;;;2.93;;
16442;SDS011;8331;51.654;14.376;2022-09-09T05:51:06;2.70;;;2.50;;
16442;SDS011;8331;51.654;14.376;2022-09-09T05:53:35;4.10;;;2.60;;
16442;SDS011;8331;51.654;14.376;2022-09-09T05:56:06;4.67;;;2.67;;
16442;SDS011;8331;51.654;14.376;2022-09-09T05:58:38;3.67;;;2.47;;
16442;SDS011;8331;51.654;14.376;2022-09-09T06:01:08;2.83;;;2.60;;
16442;SDS011;8331;51.654;14.376;2022-09-09T06:03:38;4.57;;;2.50;;
16442;SDS011;8331;51.654;14.376;2022-09-09T06:06:07;2.87;;;2.63;;
16442;SDS011;8331;51.654;14.376;2022-09-09T06:08:37;3.30;;;2.50;;
16442;SDS011;8331;51.654;14.376;2022-09-09T06:11:08;2.97;;;2.20;;
16442;SDS011;8331;51.654;14.376;2022-09-09T06:13:37;4.27;;;2.50;;
16442;SDS011;8331;51.654;14.376;2022-09-09T06:16:07;2.60;;;2.40;;
16442;SDS011;8331;51.654;14.376;2022-09-09T06:18:35;5.83;;;2.30;;
16442;SDS011;8331;51.654;14.376;2022-09-09T06:21:03;2.00;;;1.90;;
16442;SDS011;8331;51.654;14.376;2022-09-09T06:23:31;2.20;;;2.00;;
16442;SDS011;8331;51.654;14.376;2022-09-09T06:26:09;2.67;;;2.47;;
16442;SDS011;8331;51.654;14.376;2022-09-09T06:28:38;3.60;;;2.30;;
16442;SDS011;8331;51.654;14.376;2022-09-09T06:31:06;2.70;;;2.40;;
16442;SDS011;8331;51.654;14.376;2022-09-09T06:33:34;3.20;;;2.30;;
16442;SDS011;8331;51.654;14.376;2022-09-09T06:36:12;4.60;;;2.13;;
16442;SDS011;8331;51.654;14.376;2022-09-09T06:38:42;4.23;;;2.40;;
16442;SDS011;8331;51.654;14.376;2022-09-09T06:41:12;2.70;;;2.10;;
16442;SDS011;8331;51.654;14.376;2022-09-09T06:43:41;2.53;;;2.20;;
16442;SDS011;8331;51.654;14.376;2022-09-09T06:48:38;3.03;;;2.10;;
16442;SDS011;8331;51.654;14.376;2022-09-09T06:51:10;3.03;;;2.20;;
16442;SDS011;8331;51.654;14.376;2022-09-09T06:53:40;2.10;;;2.00;;
16442;SDS011;8331;51.654;14.376;2022-09-09T06:56:22;5.40;;;2.60;;
16442;SDS011;8331;51.654;14.376;2022-09-09T06:58:52;2.20;;;2.00;;
16442;SDS011;8331;51.654;14.376;2022-09-09T07:01:25;2.83;;;2.53;;
16442;SDS011;8331;51.654;14.376;2022-09-09T07:03:55;2.77;;;2.50;;
16442;SDS011;8331;51.654;14.376;2022-09-09T07:08:52;3.47;;;2.23;;
16442;SDS011;8331;51.654;14.376;2022-09-09T07:11:26;3.63;;;2.27;;
16442;SDS011;8331;51.654;14.376;2022-09-09T07:13:55;2.20;;;2.10;;
16442;SDS011;8331;51.654;14.376;2022-09-09T07:16:23;5.17;;;2.57;;
16442;SDS011;8331;51.654;14.376;2022-09-09T07:18:51;2.50;;;2.30;;
16442;SDS011;8331;51.654;14.376;2022-09-09T07:21:19;4.23;;;2.20;;
16442;SDS011;8331;51.654;14.376;2022-09-09T07:23:47;3.40;;;2.27;;
16442;SDS011;8331;51.654;14.376;2022-09-09T07:26:14;3.90;;;2.43;;
16442;SDS011;8331;51.654;14.376;2022-09-09T07:28:42;3.57;;;2.47;;
16442;SDS011;8331;51.654;14.376;2022-09-09T07:31:18;3.27;;;2.50;;
16442;SDS011;8331;51.654;14.376;2022-09-09T07:33:47;2.87;;;2.60;;
16442;SDS011;8331;51.654;14.376;2022-09-09T07:36:16;6.87;;;2.30;;
16442;SDS011;8331;51.654;14.376;2022-09-09T07:38:54;4.07;;;2.37;;
16442;SDS011;8331;51.654;14.376;2022-09-09T07:41:23;2.23;;;2.10;;
16442;SDS011;8331;51.654;14.376;2022-09-09T07:43:52;3.17;;;2.40;;
16442;SDS011;8331;51.654;14.376;2022-09-09T07:46:21;2.47;;;2.13;;
16442;SDS011;8331;51.654;14.376;2022-09-09T07:48:51;3.23;;;1.67;;
16442;SDS011;8331;51.654;14.376;2022-09-09T07:51:25;2.87;;;1.83;;
16442;SDS011;8331;51.654;14.376;2022-09-09T07:53:55;1.60;;;1.47;;
16442;SDS011;8331;51.654;14.376;2022-09-09T07:56:27;1.67;;;1.40;;
16442;SDS011;8331;51.654;14.376;2022-09-09T07:58:55;2.13;;;1.70;;
16442;SDS011;8331;51.654;14.376;2022-09-09T08:01:27;2.57;;;1.27;;
16442;SDS011;8331;51.654;14.376;2022-09-09T08:06:29;1.87;;;1.50;;
16442;SDS011;8331;51.654;14.376;2022-09-09T08:08:59;3.93;;;1.50;;
16442;SDS011;8331;51.654;14.376;2022-09-09T08:11:27;1.30;;;1.10;;
16442;SDS011;8331;51.654;14.376;2022-09-09T08:13:55;2.67;;;1.40;;
16442;SDS011;8331;51.654;14.376;2022-09-09T08:16:29;2.77;;;1.20;;
16442;SDS011;8331;51.654;14.376;2022-09-09T08:19:03;1.80;;;1.10;;
16442;SDS011;8331;51.654;14.376;2022-09-09T08:21:31;1.80;;;1.10;;
16442;SDS011;8331;51.654;14.376;2022-09-09T08:24:00;2.90;;;1.20;;
16442;SDS011;8331;51.654;14.376;2022-09-09T08:26:31;1.77;;;1.00;;
16442;SDS011;8331;51.654;14.376;2022-09-09T08:29:01;2.67;;;1.33;;
16442;SDS011;8331;51.654;14.376;2022-09-09T08:31:29;1.47;;;1.10;;
16442;SDS011;8331;51.654;14.376;2022-09-09T08:33:59;2.00;;;1.10;;
16442;SDS011;8331;51.654;14.376;2022-09-09T08:36:28;4.17;;;1.40;;
16442;SDS011;8331;51.654;14.376;2022-09-09T08:38:56;3.47;;;1.40;;
16442;SDS011;8331;51.654;14.376;2022-09-09T08:52:31;1.30;;;0.93;;
16442;SDS011;8331;51.654;14.376;2022-09-09T08:55:05;1.90;;;1.17;;
16442;SDS011;8331;51.654;14.376;2022-09-09T08:57:38;1.23;;;1.07;;
16442;SDS011;8331;51.654;14.376;2022-09-09T09:00:07;2.30;;;0.90;;
16442;SDS011;8331;51.654;14.376;2022-09-09T09:05:28;1.93;;;1.07;;
16442;SDS011;8331;51.654;14.376;2022-09-09T09:08:06;2.67;;;1.00;;
16442;SDS011;8331;51.654;14.376;2022-09-09T09:13:20;2.43;;;1.23;;
16442;SDS011;8331;51.654;14.376;2022-09-09T09:15:55;2.43;;;1.23;;
16442;SDS011;8331;51.654;14.376;2022-09-09T09:18:26;3.03;;;1.00;;
16442;SDS011;8331;51.654;14.376;2022-09-09T09:21:39;2.67;;;0.97;;
16442;SDS011;8331;51.654;14.376;2022-09-09T09:24:01;1.27;;;1.07;;
16442;SDS011;8331;51.654;14.376;2022-09-09T09:26:32;1.77;;;0.90;;
16442;SDS011;8331;51.654;14.376;2022-09-09T09:29:13;2.13;;;1.00;;
16442;SDS011;8331;51.654;14.376;2022-09-09T09:31:44;2.63;;;0.90;;
16442;SDS011;8331;51.654;14.376;2022-09-09T09:34:12;2.47;;;1.00;;
16442;SDS011;8331;51.654;14.376;2022-09-09T09:36:58;1.07;;;0.97;;
16442;SDS011;8331;51.654;14.376;2022-09-09T09:39:32;2.30;;;1.10;;
16442;SDS011;8331;51.654;14.376;2022-09-09T09:42:29;2.67;;;1.00;;
16442;SDS011;8331;51.654;14.376;2022-09-09T09:44:56;2.27;;;1.20;;
16442;SDS011;8331;51.654;14.376;2022-09-09T09:47:34;1.37;;;0.90;;
16442;SDS011;8331;51.654;14.376;2022-09-09T09:50:18;1.23;;;0.93;;
16442;SDS011;8331;51.654;14.376;2022-09-09T09:52:59;1.63;;;1.10;;
16442;SDS011;8331;51.654;14.376;2022-09-09T09:55:29;1.10;;;0.60;;
16442;SDS011;8331;51.654;14.376;2022-09-09T09:58:04;2.30;;;1.00;;
16442;SDS011;8331;51.654;14.376;2022-09-09T10:00:32;2.70;;;1.20;;
16442;SDS011;8331;51.654;14.376;2022-09-09T10:03:19;1.73;;;0.87;;
16442;SDS011;8331;51.654;14.376;2022-09-09T10:05:49;1.87;;;1.00;;
16442;SDS011;8331;51.654;14.376;2022-09-09T10:08:16;2.60;;;0.83;;
16442;SDS011;8331;51.654;14.376;2022-09-09T10:19:21;1.77;;;0.73;;
16442;SDS011;8331;51.654;14.376;2022-09-09T10:27:54;2.40;;;0.90;;
16442;SDS011;8331;51.654;14.376;2022-09-09T10:33:16;1.03;;;0.90;;
16442;SDS011;8331;51.654;14.376;2022-09-09T10:36:03;1.55;;;0.88;;
16442;SDS011;8331;51.654;14.376;2022-09-09T10:41:16;1.37;;;1.10;;
16442;SDS011;8331;51.654;14.376;2022-09-09T10:43:53;0.83;;;0.83;;
16442;SDS011;8331;51.654;14.376;2022-09-09T10:56:57;2.23;;;1.10;;
16442;SDS011;8331;51.654;14.376;2022-09-09T10:59:28;1.27;;;0.80;;
16442;SDS011;8331;51.654;14.376;2022-09-09T11:02:00;1.40;;;1.00;;
16442;SDS011;8331;51.654;14.376;2022-09-09T11:04:34;1.93;;;0.90;;
16442;SDS011;8331;51.654;14.376;2022-09-09T11:07:06;1.20;;;0.77;;
16442;SDS011;8331;51.654;14.376;2022-09-09T11:09:49;2.93;;;1.07;;
16442;SDS011;8331;51.654;14.376;2022-09-09T11:12:18;1.30;;;0.80;;
16442;SDS011;8331;51.654;14.376;2022-09-09T11:14:50;1.30;;;0.80;;
16442;SDS011;8331;51.654;14.376;2022-09-09T11:17:23;1.57;;;1.07;;
16442;SDS011;8331;51.654;14.376;2022-09-09T11:19:53;2.70;;;1.00;;
16442;SDS011;8331;51.654;14.376;2022-09-09T11:22:28;5.90;;;1.03;;
16442;SDS011;8331;51.654;14.376;2022-09-09T11:33:50;3.00;;;1.27;;
16442;SDS011;8331;51.654;14.376;2022-09-09T11:36:46;1.77;;;0.80;;
16442;SDS011;8331;51.654;14.376;2022-09-09T11:42:27;1.90;;;0.87;;
16442;SDS011;8331;51.654;14.376;2022-09-09T11:44:53;2.17;;;0.70;;
16442;SDS011;8331;51.654;14.376;2022-09-09T11:47:28;0.80;;;0.70;;
16442;SDS011;8331;51.654;14.376;2022-09-09T11:52:42;2.33;;;0.57;;
16442;SDS011;8331;51.654;14.376;2022-09-09T11:55:24;0.83;;;0.43;;
16442;SDS011;8331;51.654;14.376;2022-09-09T11:57:59;0.70;;;0.40;;
16442;SDS011;8331;51.654;14.376;2022-09-09T12:03:03;0.27;;;0.27;;
16442;SDS011;8331;51.654;14.376;2022-09-09T12:06:08;0.40;;;0.30;;
16442;SDS011;8331;51.654;14.376;2022-09-09T12:08:27;0.33;;;0.20;;
16442;SDS011;8331;51.654;14.376;2022-09-09T12:10:56;1.33;;;0.60;;
16442;SDS011;8331;51.654;14.376;2022-09-09T12:13:26;1.07;;;0.10;;
16442;SDS011;8331;51.654;14.376;2022-09-09T12:15:54;0.30;;;0.30;;
16442;SDS011;8331;51.654;14.376;2022-09-09T12:18:22;0.83;;;0.50;;
16442;SDS011;8331;51.654;14.376;2022-09-09T12:21:18;0.53;;;0.33;;
16442;SDS011;8331;51.654;14.376;2022-09-09T12:23:55;0.90;;;0.20;;
16442;SDS011;8331;51.654;14.376;2022-09-09T12:37:26;0.50;;;0.50;;
16442;SDS011;8331;51.654;14.376;2022-09-09T12:39:55;0.50;;;0.30;;
16442;SDS011;8331;51.654;14.376;2022-09-09T12:42:23;2.23;;;0.40;;
16442;SDS011;8331;51.654;14.376;2022-09-09T12:44:51;0.40;;;0.20;;
16442;SDS011;8331;51.654;14.376;2022-09-09T12:47:23;0.83;;;0.40;;
16442;SDS011;8331;51.654;14.376;2022-09-09T12:50:04;1.17;;;0.20;;
16442;SDS011;8331;51.654;14.376;2022-09-09T12:52:31;0.90;;;0.40;;
16442;SDS011;8331;51.654;14.376;2022-09-09T12:55:01;0.50;;;0.40;;
16442;SDS011;8331;51.654;14.376;2022-09-09T12:57:31;0.67;;;0.40;;
16442;SDS011;8331;51.654;14.376;2022-09-09T13:00:10;0.30;;;0.30;;
16442;SDS011;8331;51.654;14.376;2022-09-09T13:02:46;0.90;;;0.30;;
16442;SDS011;8331;51.654;14.376;2022-09-09T13:05:21;0.90;;;0.40;;
16442;SDS011;8331;51.654;14.376;2022-09-09T13:08:00;0.40;;;0.40;;
16442;SDS011;8331;51.654;14.376;2022-09-09T13:10:35;0.77;;;0.40;;
16442;SDS011;8331;51.654;14.376;2022-09-09T13:13:22;0.67;;;0.47;;
16442;SDS011;8331;51.654;14.376;2022-09-09T13:15:53;0.63;;;0.40;;
16442;SDS011;8331;51.654;14.376;2022-09-09T13:18:21;0.40;;;0.40;;
16442;SDS011;8331;51.654;14.376;2022-09-09T13:20:49;0.67;;;0.40;;
16442;SDS011;8331;51.654;14.376;2022-09-09T13:23:17;0.50;;;0.40;;
16442;SDS011;8331;51.654;14.376;2022-09-09T13:25:56;2.33;;;0.57;;
16442;SDS011;8331;51.654;14.376;2022-09-09T13:28:24;1.33;;;0.60;;
16442;SDS011;8331;51.654;14.376;2022-09-09T13:30:59;1.23;;;0.60;;
16442;SDS011;8331;51.654;14.376;2022-09-09T13:33:33;2.00;;;0.50;;
16442;SDS011;8331;51.654;14.376;2022-09-09T13:36:10;1.00;;;0.50;;
16442;SDS011;8331;51.654;14.376;2022-09-09T13:41:19;1.03;;;0.43;;
16442;SDS011;8331;51.654;14.376;2022-09-09T13:43:48;2.17;;;0.60;;
16442;SDS011;8331;51.654;14.376;2022-09-09T13:46:58;1.93;;;0.73;;
16442;SDS011;8331;51.654;14.376;2022-09-09T13:51:38;1.90;;;0.83;;
16442;SDS011;8331;51.654;14.376;2022-09-09T13:54:06;0.70;;;0.60;;
16442;SDS011;8331;51.654;14.376;2022-09-09T13:56:36;1.33;;;0.80;;
16442;SDS011;8331;51.654;14.376;2022-09-09T13:59:04;2.00;;;1.00;;
16442;SDS011;8331;51.654;14.376;2022-09-09T14:01:31;1.83;;;1.00;;
16442;SDS011;8331;51.654;14.376;2022-09-09T14:03:59;2.07;;;0.83;;
16442;SDS011;8331;51.654;14.376;2022-09-09T14:06:25;1.40;;;1.00;;
16442;SDS011;8331;51.654;14.376;2022-09-09T14:08:53;0.97;;;0.80;;
16442;SDS011;8331;51.654;14.376;2022-09-09T14:11:21;1.40;;;0.87;;
16442;SDS011;8331;51.654;14.376;2022-09-09T14:13:48;2.50;;;1.20;;
16442;SDS011;8331;51.654;14.376;2022-09-09T14:16:16;1.10;;;0.83;;
16442;SDS011;8331;51.654;14.376;2022-09-09T14:18:44;3.07;;;1.20;;
16442;SDS011;8331;51.654;14.376;2022-09-09T14:21:11;9.82;;;9.13;;
16442;SDS011;8331;51.654;14.376;2022-09-09T14:23:38;8.63;;;7.93;;
16442;SDS011;8331;51.654;14.376;2022-09-09T14:26:05;5.73;;;5.23;;
16442;SDS011;8331;51.654;14.376;2022-09-09T14:28:32;2.73;;;2.20;;
16442;SDS011;8331;51.654;14.376;2022-09-09T14:31:19;2.73;;;1.20;;
16442;SDS011;8331;51.654;14.376;2022-09-09T14:33:47;1.47;;;1.00;;
16442;SDS011;8331;51.654;14.376;2022-09-09T14:36:13;1.53;;;1.27;;
16442;SDS011;8331;51.654;14.376;2022-09-09T14:38:41;2.70;;;1.20;;
16442;SDS011;8331;51.654;14.376;2022-09-09T14:41:09;2.40;;;1.47;;
16442;SDS011;8331;51.654;14.376;2022-09-09T14:43:37;4.00;;;2.50;;
16442;SDS011;8331;51.654;14.376;2022-09-09T14:46:08;1.27;;;1.00;;
16442;SDS011;8331;51.654;14.376;2022-09-09T14:48:37;1.47;;;0.93;;
16442;SDS011;8331;51.654;14.376;2022-09-09T14:51:10;1.20;;;1.00;;
16442;SDS011;8331;51.654;14.376;2022-09-09T14:53:42;2.20;;;1.53;;
16442;SDS011;8331;51.654;14.376;2022-09-09T14:56:11;2.53;;;1.23;;
16442;SDS011;8331;51.654;14.376;2022-09-09T14:58:39;2.33;;;1.03;;
16442;SDS011;8331;51.654;14.376;2022-09-09T15:01:10;2.03;;;1.00;;
16442;SDS011;8331;51.654;14.376;2022-09-09T15:03:39;4.53;;;1.10;;
16442;SDS011;8331;51.654;14.376;2022-09-09T15:06:12;4.43;;;1.40;;
16442;SDS011;8331;51.654;14.376;2022-09-09T15:08:40;1.97;;;1.20;;
16442;SDS011;8331;51.654;14.376;2022-09-09T15:11:09;1.93;;;1.00;;
16442;SDS011;8331;51.654;14.376;2022-09-09T15:13:37;2.03;;;1.07;;
16442;SDS011;8331;51.654;14.376;2022-09-09T15:16:05;3.00;;;1.13;;
16442;SDS011;8331;51.654;14.376;2022-09-09T15:18:32;1.47;;;1.10;;
16442;SDS011;8331;51.654;14.376;2022-09-09T15:20:59;1.27;;;0.83;;
16442;SDS011;8331;51.654;14.376;2022-09-09T15:23:31;2.50;;;1.00;;
16442;SDS011;8331;51.654;14.376;2022-09-09T15:25:58;2.93;;;1.40;;
16442;SDS011;8331;51.654;14.376;2022-09-09T15:28:25;1.83;;;1.10;;
16442;SDS011;8331;51.654;14.376;2022-09-09T15:30:52;3.97;;;1.30;;
16442;SDS011;8331;51.654;14.376;2022-09-09T15:33:20;3.73;;;1.37;;
16442;SDS011;8331;51.654;14.376;2022-09-09T15:35:47;2.00;;;0.93;;
16442;SDS011;8331;51.654;14.376;2022-09-09T15:38:14;2.30;;;1.33;;
16442;SDS011;8331;51.654;14.376;2022-09-09T15:40:42;8.03;;;1.40;;
16442;SDS011;8331;51.654;14.376;2022-09-09T15:43:09;3.83;;;1.20;;
16442;SDS011;8331;51.654;14.376;2022-09-09T15:45:36;1.67;;;1.03;;
16442;SDS011;8331;51.654;14.376;2022-09-09T15:48:03;2.17;;;1.20;;
16442;SDS011;8331;51.654;14.376;2022-09-09T15:50:30;1.67;;;1.03;;
16442;SDS011;8331;51.654;14.376;2022-09-09T15:52:59;2.70;;;1.20;;
16442;SDS011;8331;51.654;14.376;2022-09-09T15:55:26;2.37;;;1.30;;
16442;SDS011;8331;51.654;14.376;2022-09-09T15:57:52;2.00;;;1.30;;
16442;SDS011;8331;51.654;14.376;2022-09-09T16:00:19;1.90;;;1.10;;
16442;SDS011;8331;51.654;14.376;2022-09-09T16:02:46;3.63;;;1.30;;
16442;SDS011;8331;51.654;14.376;2022-09-09T16:05:13;2.43;;;1.20;;
16442;SDS011;8331;51.654;14.376;2022-09-09T16:07:40;2.30;;;1.30;;
16442;SDS011;8331;51.654;14.376;2022-09-09T16:10:08;3.77;;;1.13;;
16442;SDS011;8331;51.654;14.376;2022-09-09T16:12:35;2.43;;;1.10;;
16442;SDS011;8331;51.654;14.376;2022-09-09T16:15:02;2.27;;;1.57;;
16442;SDS011;8331;51.654;14.376;2022-09-09T16:17:29;2.30;;;1.40;;
16442;SDS011;8331;51.654;14.376;2022-09-09T16:19:56;7.43;;;6.33;;
16442;SDS011;8331;51.654;14.376;2022-09-09T16:22:23;8.83;;;7.60;;
16442;SDS011;8331;51.654;14.376;2022-09-09T16:24:50;5.67;;;3.37;;
16442;SDS011;8331;51.654;14.376;2022-09-09T16:27:17;1.90;;;1.80;;
16442;SDS011;8331;51.654;14.376;2022-09-09T16:29:44;1.73;;;1.57;;
16442;SDS011;8331;51.654;14.376;2022-09-09T16:32:11;1.47;;;1.30;;
16442;SDS011;8331;51.654;14.376;2022-09-09T16:34:38;1.67;;;1.30;;
16442;SDS011;8331;51.654;14.376;2022-09-09T16:37:04;1.30;;;1.10;;
16442;SDS011;8331;51.654;14.376;2022-09-09T16:39:31;1.30;;;1.17;;
16442;SDS011;8331;51.654;14.376;2022-09-09T16:41:58;1.80;;;1.20;;
16442;SDS011;8331;51.654;14.376;2022-09-09T16:44:26;11.97;;;10.90;;
16442;SDS011;8331;51.654;14.376;2022-09-09T16:46:52;3.10;;;2.80;;
16442;SDS011;8331;51.654;14.376;2022-09-09T16:49:25;4.37;;;1.70;;
16442;SDS011;8331;51.654;14.376;2022-09-09T16:51:56;2.93;;;1.47;;
16442;SDS011;8331;51.654;14.376;2022-09-09T16:54:24;2.27;;;1.30;;
16442;SDS011;8331;51.654;14.376;2022-09-09T16:56:53;2.07;;;1.37;;
16442;SDS011;8331;51.654;14.376;2022-09-09T16:59:20;2.50;;;1.27;;
16442;SDS011;8331;51.654;14.376;2022-09-09T17:01:48;1.00;;;0.90;;
16442;SDS011;8331;51.654;14.376;2022-09-09T17:04:17;2.63;;;1.10;;
16442;SDS011;8331;51.654;14.376;2022-09-09T17:06:47;2.13;;;1.10;;
16442;SDS011;8331;51.654;14.376;2022-09-09T17:09:19;2.10;;;1.00;;
16442;SDS011;8331;51.654;14.376;2022-09-09T17:11:46;1.17;;;1.00;;
16442;SDS011;8331;51.654;14.376;2022-09-09T17:14:14;1.10;;;1.00;;
16442;SDS011;8331;51.654;14.376;2022-09-09T17:16:42;1.70;;;1.30;;
16442;SDS011;8331;51.654;14.376;2022-09-09T17:19:10;1.27;;;1.10;;
16442;SDS011;8331;51.654;14.376;2022-09-09T17:21:37;3.33;;;1.27;;
16442;SDS011;8331;51.654;14.376;2022-09-09T17:24:24;2.53;;;1.10;;